Time;durP1;ratioP1;P1;durP2;ratioP2;P2;SDS_P1;SDS_P2;PMS_P1;PMS_P2;Temp;Humidity;BMP_temperature;BMP_pressure;BME280_temperature;BME280_humidity;BME280_pressure;Samples;Min_cycle;Max_cycle;Signal;HPM_P1;HPM_P2
2020/12/27 00:00:24;;;;;;;9.27;8.13;;;0.20;99.20;;;;;;6227489;28;20629;-59
2020/12/27 00:03:27;;;;;;;11.27;8.37;;;0.10;99.10;;;;;;6223323;28;20951;-59
2020/12/27 00:06:31;;;;;;;10.67;8.63;;;0.10;99.20;;;;;;6227755;28;20479;-59
2020/12/27 00:09:33;;;;;;;8.97;7.70;;;0.20;99.20;;;;;;6227625;28;20487;-59
2020/12/27 00:12:36;;;;;;;11.70;8.80;;;0.20;99.20;;;;;;6227673;28;20508;-58
2020/12/27 00:15:38;;;;;;;16.70;9.70;;;0.10;99.30;;;;;;6227281;28;20960;-58
2020/12/27 00:18:40;;;;;;;14.63;8.83;;;0.10;99.30;;;;;;6227255;28;20795;-58
2020/12/27 00:21:43;;;;;;;13.30;8.80;;;0.10;99.30;;;;;;6227387;28;20475;-57
2020/12/27 00:24:45;;;;;;;13.13;9.03;;;0.10;99.50;;;;;;6227570;28;20472;-59
2020/12/27 00:27:47;;;;;;;11.70;8.53;;;0.00;99.40;;;;;;6227268;28;20468;-59
2020/12/27 00:30:52;;;;;;;8.97;7.97;;;0.00;99.50;;;;;;6226720;28;20559;-59
2020/12/27 00:33:54;;;;;;;10.27;8.20;;;-0.10;99.70;;;;;;6226797;28;20598;-59
2020/12/27 00:36:58;;;;;;;10.70;9.53;;;-0.10;99.90;;;;;;6227288;28;20482;-58
2020/12/27 00:40:00;;;;;;;10.40;8.70;;;-0.20;99.90;;;;;;6226344;28;20476;-59
2020/12/27 00:43:05;;;;;;;10.00;8.50;;;-0.10;99.80;;;;;;6226469;28;20831;-59
2020/12/27 00:46:10;;;;;;;13.70;8.87;;;-0.20;99.80;;;;;;6226604;28;20905;-59
2020/12/27 00:49:12;;;;;;;11.43;8.17;;;-0.20;99.90;;;;;;6226802;28;20468;-59
2020/12/27 00:52:15;;;;;;;8.37;7.13;;;-0.20;99.90;;;;;;6226345;28;20480;-59
2020/12/27 00:55:17;;;;;;;8.57;7.67;;;-0.30;99.80;;;;;;6226395;28;20819;-59
2020/12/27 00:58:20;;;;;;;8.73;7.83;;;-0.30;99.90;;;;;;6226492;28;20483;-59
2020/12/27 01:01:22;;;;;;;10.73;8.00;;;-0.40;99.90;;;;;;6226417;28;20813;-59
2020/12/27 01:04:24;;;;;;;9.10;8.03;;;-0.30;99.90;;;;;;6226553;28;20815;-59
2020/12/27 01:07:27;;;;;;;10.97;9.10;;;-0.30;99.90;;;;;;6226604;28;20472;-59
2020/12/27 01:10:29;;;;;;;9.50;8.60;;;-0.30;99.90;;;;;;6226312;28;20806;-59
2020/12/27 01:13:37;;;;;;;11.07;9.97;;;-0.30;99.90;;;;;;6226313;28;20476;-59
2020/12/27 01:16:39;;;;;;;10.67;9.53;;;-0.30;99.90;;;;;;6217288;28;20464;-59
2020/12/27 01:19:41;;;;;;;10.10;7.63;;;-0.30;99.90;;;;;;6225999;28;20523;-59
2020/12/27 01:22:44;;;;;;;8.43;7.57;;;-0.40;99.90;;;;;;6225923;28;20479;-59
2020/12/27 01:25:47;;;;;;;8.97;7.17;;;-0.40;99.90;;;;;;6226245;28;20476;-59
2020/12/27 01:28:49;;;;;;;8.63;7.00;;;-0.30;99.90;;;;;;6225815;28;20832;-59
2020/12/27 01:31:52;;;;;;;10.20;7.13;;;-0.40;99.90;;;;;;6225614;28;20480;-59
2020/12/27 01:34:54;;;;;;;9.60;7.40;;;-0.50;99.90;;;;;;6226546;28;20471;-59
2020/12/27 01:37:58;;;;;;;8.27;7.57;;;-0.40;99.90;;;;;;6225696;28;20499;-60
2020/12/27 01:41:01;;;;;;;8.23;7.40;;;-0.50;99.90;;;;;;6225387;28;20479;-59
2020/12/27 01:44:06;;;;;;;10.40;6.70;;;-0.50;99.90;;;;;;6225414;28;20990;-59
2020/12/27 01:47:15;;;;;;;9.07;7.87;;;-0.60;99.90;;;;;;6225574;28;20783;-59
2020/12/27 01:50:17;;;;;;;12.97;11.17;;;-0.50;99.90;;;;;;6225579;28;20495;-59
2020/12/27 01:53:20;;;;;;;12.93;11.50;;;-0.50;99.90;;;;;;6225624;28;20971;-59
2020/12/27 01:56:28;;;;;;;9.73;8.80;;;-0.60;99.90;;;;;;6225393;28;20487;-59
2020/12/27 01:59:32;;;;;;;11.60;10.47;;;-0.60;99.90;;;;;;6225741;28;20786;-59
2020/12/27 02:02:34;;;;;;;12.77;8.50;;;-0.60;99.90;;;;;;6225488;28;20491;-59
2020/12/27 02:05:36;;;;;;;8.00;7.20;;;-0.60;99.90;;;;;;6225490;28;20472;-59
2020/12/27 02:08:39;;;;;;;8.40;7.10;;;-0.60;99.90;;;;;;6225694;28;20804;-60
2020/12/27 02:11:42;;;;;;;9.13;7.60;;;-0.70;99.90;;;;;;6225309;28;20484;-59
2020/12/27 02:14:44;;;;;;;10.07;7.60;;;-0.80;99.90;;;;;;6225681;28;20786;-59
2020/12/27 02:17:47;;;;;;;7.40;6.80;;;-0.80;99.90;;;;;;6225373;28;20480;-59
2020/12/27 02:20:49;;;;;;;8.70;7.87;;;-0.80;99.90;;;;;;6220379;28;20476;-59
2020/12/27 02:23:59;;;;;;;8.57;7.67;;;-0.90;99.90;;;;;;6224948;28;20484;-59
2020/12/27 02:27:04;;;;;;;11.17;7.83;;;-0.90;99.90;;;;;;6225090;28;20448;-58
2020/12/27 02:30:06;;;;;;;8.67;7.87;;;-0.90;99.90;;;;;;6225240;28;20460;-59
2020/12/27 02:33:11;;;;;;;12.83;11.53;;;-0.80;99.90;;;;;;6224857;28;20920;-59
2020/12/27 02:36:13;;;;;;;10.97;9.60;;;-0.80;99.90;;;;;;6225108;28;20455;-59
2020/12/27 02:39:18;;;;;;;9.47;8.40;;;-0.80;99.90;;;;;;6225048;28;20502;-59
2020/12/27 02:42:20;;;;;;;10.47;7.40;;;-0.80;99.90;;;;;;6224536;28;20947;-59
2020/12/27 02:45:22;;;;;;;9.30;7.23;;;-0.90;99.90;;;;;;6225079;28;20475;-59
2020/12/27 02:48:24;;;;;;;7.63;6.87;;;-0.90;99.90;;;;;;6225067;28;20472;-59
2020/12/27 02:51:28;;;;;;;9.43;8.40;;;-0.90;99.90;;;;;;6224643;28;20472;-59
2020/12/27 02:54:31;;;;;;;9.50;6.93;;;-1.00;99.90;;;;;;6224613;28;20797;-59
2020/12/27 02:57:33;;;;;;;9.37;8.00;;;-1.10;99.90;;;;;;6224570;28;20491;-58
2020/12/27 03:00:35;;;;;;;8.20;7.50;;;-1.10;99.90;;;;;;6225094;28;20487;-58
2020/12/27 03:03:37;;;;;;;8.30;6.97;;;-1.00;99.90;;;;;;6226956;28;20483;-58
2020/12/27 03:06:49;;;;;;;8.00;7.07;;;-1.00;99.90;;;;;;6229147;28;20805;-58
2020/12/27 03:09:52;;;;;;;8.30;6.60;;;-1.00;99.90;;;;;;6229087;28;20475;-59
2020/12/27 03:12:55;;;;;;;8.33;7.43;;;-1.00;99.90;;;;;;6229160;28;20478;-58
2020/12/27 03:15:57;;;;;;;7.90;7.03;;;-1.10;99.90;;;;;;6229325;28;20487;-58
2020/12/27 03:18:59;;;;;;;8.40;7.50;;;-1.10;99.90;;;;;;6229085;28;20463;-59
2020/12/27 03:22:01;;;;;;;9.40;7.13;;;-1.10;99.90;;;;;;6229004;28;20476;-58
2020/12/27 03:25:04;;;;;;;9.27;7.13;;;-1.10;99.90;;;;;;6224033;28;20811;-59
2020/12/27 03:28:06;;;;;;;9.97;7.80;;;-1.20;99.90;;;;;;6228820;28;20472;-59
2020/12/27 03:31:09;;;;;;;9.03;7.97;;;-1.20;99.90;;;;;;6228826;28;20483;-58
2020/12/27 03:34:11;;;;;;;8.63;7.80;;;-1.30;99.90;;;;;;6228467;28;20616;-59
2020/12/27 03:37:19;;;;;;;7.57;6.87;;;-1.20;99.90;;;;;;6228554;28;20468;-59
2020/12/27 03:40:22;;;;;;;7.50;6.80;;;-1.20;99.90;;;;;;6228433;28;20480;-59
2020/12/27 03:43:24;;;;;;;7.17;6.47;;;-1.30;99.90;;;;;;6228109;28;20487;-59
2020/12/27 03:46:27;;;;;;;7.27;6.57;;;-1.40;99.90;;;;;;6228078;28;20483;-60
2020/12/27 03:49:29;;;;;;;7.90;6.80;;;-1.40;99.90;;;;;;6228376;28;20791;-60
2020/12/27 03:52:31;;;;;;;10.00;8.03;;;-1.40;99.90;;;;;;6227756;28;20499;-59
2020/12/27 03:55:34;;;;;;;8.20;7.30;;;-1.40;99.90;;;;;;6227962;28;20486;-62
2020/12/27 03:58:36;;;;;;;11.70;10.33;;;-1.40;99.90;;;;;;6228094;28;20480;-59
2020/12/27 04:01:38;;;;;;;10.50;9.40;;;-1.40;99.90;;;;;;6227493;28;20479;-59
2020/12/27 04:04:40;;;;;;;10.63;8.40;;;-1.40;99.90;;;;;;6227746;28;20472;-60
2020/12/27 04:07:42;;;;;;;8.40;7.40;;;-1.40;99.90;;;;;;6227724;28;20472;-60
2020/12/27 04:10:51;;;;;;;8.17;7.27;;;-1.40;99.90;;;;;;6227622;28;20542;-60
2020/12/27 04:13:54;;;;;;;11.80;7.70;;;-1.30;99.90;;;;;;6226988;28;20472;-60
2020/12/27 04:16:56;;;;;;;9.07;7.23;;;-1.40;99.90;;;;;;6226999;28;20472;-59
2020/12/27 04:19:59;;;;;;;7.13;6.40;;;-1.40;99.90;;;;;;6227256;28;20472;-59
2020/12/27 04:23:01;;;;;;;11.40;7.40;;;-1.30;99.90;;;;;;6227338;28;20483;-59
2020/12/27 04:26:04;;;;;;;8.50;6.80;;;-1.40;99.90;;;;;;6227176;28;20475;-60
2020/12/27 04:29:06;;;;;;;9.03;7.17;;;-1.30;99.90;;;;;;6222275;28;20483;-60
2020/12/27 04:32:08;;;;;;;7.27;6.63;;;-1.30;99.90;;;;;;6226966;28;20490;-60
2020/12/27 04:35:10;;;;;;;10.87;7.33;;;-1.30;99.90;;;;;;6227003;28;20468;-60
2020/12/27 04:38:15;;;;;;;9.60;8.20;;;-1.30;99.90;;;;;;6226860;28;20472;-59
2020/12/27 04:41:19;;;;;;;10.33;7.83;;;-1.20;99.90;;;;;;6226669;28;20480;-60
2020/12/27 04:44:23;;;;;;;10.30;8.90;;;-1.30;99.90;;;;;;6226617;28;20476;-62
2020/12/27 04:47:26;;;;;;;12.63;10.73;;;-1.30;99.90;;;;;;6226672;28;20818;-60
2020/12/27 04:50:29;;;;;;;13.70;9.90;;;-1.40;99.90;;;;;;6226618;28;20481;-59
2020/12/27 04:53:31;;;;;;;13.43;9.70;;;-1.40;99.90;;;;;;6226605;28;20475;-59
2020/12/27 04:56:40;;;;;;;10.03;8.70;;;-1.40;99.90;;;;;;6226445;28;20482;-59
2020/12/27 04:59:46;;;;;;;10.63;8.27;;;-1.40;99.90;;;;;;6226281;28;20485;-60
2020/12/27 05:02:48;;;;;;;8.37;7.43;;;-1.50;99.90;;;;;;6226027;28;20532;-60
2020/12/27 05:05:51;;;;;;;8.40;7.60;;;-1.50;99.90;;;;;;6226161;28;20475;-60
2020/12/27 05:08:59;;;;;;;8.10;7.30;;;-1.40;99.90;;;;;;6226895;28;20480;-59
2020/12/27 05:12:02;;;;;;;7.37;6.67;;;-1.50;99.90;;;;;;6225893;28;20806;-60
2020/12/27 05:15:05;;;;;;;9.10;7.00;;;-1.40;99.90;;;;;;6226435;28;20440;-59
2020/12/27 05:18:09;;;;;;;7.20;6.50;;;-1.50;99.90;;;;;;6226324;28;20483;-60
2020/12/27 05:21:13;;;;;;;8.33;6.53;;;-1.40;99.90;;;;;;6226260;28;20471;-59
2020/12/27 05:24:17;;;;;;;8.80;7.00;;;-1.50;99.90;;;;;;6226076;28;20474;-59
2020/12/27 05:27:23;;;;;;;10.83;9.47;;;-1.50;99.90;;;;;;6225381;28;20924;-59
2020/12/27 05:30:26;;;;;;;14.87;9.87;;;-1.60;99.90;;;;;;6221212;28;20475;-60
2020/12/27 05:33:28;;;;;;;10.33;8.83;;;-1.60;99.90;;;;;;6225991;28;20472;-60
2020/12/27 05:36:31;;;;;;;9.43;8.43;;;-1.50;99.90;;;;;;6225545;28;20808;-60
2020/12/27 05:39:33;;;;;;;9.37;7.13;;;-1.60;99.90;;;;;;6225639;28;20467;-59
2020/12/27 05:42:36;;;;;;;10.40;7.47;;;-1.60;99.90;;;;;;6225619;28;20476;-59
2020/12/27 05:45:39;;;;;;;9.50;6.83;;;-1.60;99.90;;;;;;6225505;28;20486;-60
2020/12/27 05:48:41;;;;;;;7.20;6.50;;;-1.70;99.90;;;;;;6225768;28;20478;-59
2020/12/27 05:51:51;;;;;;;8.10;7.00;;;-1.80;99.90;;;;;;6225707;28;20476;-59
2020/12/27 05:55:02;;;;;;;7.30;6.37;;;-1.80;99.90;;;;;;6225280;28;20479;-59
2020/12/27 05:58:10;;;;;;;9.23;7.20;;;-1.80;99.90;;;;;;6225489;28;20542;-59
2020/12/27 06:01:20;;;;;;;9.17;7.80;;;-1.80;99.90;;;;;;6225320;28;20526;-59
2020/12/27 06:04:56;;;;;;;9.70;8.80;;;-1.80;99.90;;;;;;6225307;28;20487;-59
2020/12/27 06:08:22;;;;;;;11.67;9.27;;;-1.80;99.90;;;;;;6225199;28;20492;-59
2020/12/27 06:11:35;;;;;;;8.70;7.63;;;-1.70;99.90;;;;;;6224968;28;20491;-59
2020/12/27 06:14:40;;;;;;;8.33;7.63;;;-1.70;99.90;;;;;;6225393;28;20879;-60
2020/12/27 06:17:55;;;;;;;10.10;8.60;;;-1.70;99.90;;;;;;6225192;28;20468;-60
2020/12/27 06:21:12;;;;;;;9.97;8.97;;;-1.70;99.90;;;;;;6225153;28;20456;-59
2020/12/27 06:24:22;;;;;;;9.90;8.90;;;-1.80;99.90;;;;;;6223423;28;20441;-60
2020/12/27 06:27:27;;;;;;;13.47;10.40;;;-1.80;99.90;;;;;;6225354;28;20471;-59
2020/12/27 06:30:37;;;;;;;15.33;10.03;;;-1.80;99.90;;;;;;6224863;28;20912;-59
2020/12/27 06:33:41;;;;;;;14.80;10.37;;;-1.70;99.90;;;;;;6216262;28;20464;-59
2020/12/27 06:36:44;;;;;;;12.77;10.33;;;-1.70;99.90;;;;;;6224957;28;20975;-60
2020/12/27 06:39:47;;;;;;;8.97;8.10;;;-1.70;99.90;;;;;;6229146;28;20479;-60
2020/12/27 06:42:49;;;;;;;8.73;7.83;;;-1.80;99.90;;;;;;6229377;28;20493;-60
2020/12/27 06:45:53;;;;;;;9.80;8.07;;;-1.80;99.90;;;;;;6229980;28;20618;-60
2020/12/27 06:49:08;;;;;;;9.67;8.13;;;-1.70;99.90;;;;;;6229645;28;20475;-58
2020/12/27 06:52:19;;;;;;;8.93;8.00;;;-1.70;99.90;;;;;;6229311;28;20480;-60
2020/12/27 06:55:37;;;;;;;7.20;6.50;;;-1.70;99.90;;;;;;6229363;28;20969;-59
2020/12/27 06:58:40;;;;;;;9.83;6.93;;;-1.70;99.90;;;;;;6229080;28;20823;-59
2020/12/27 07:02:05;;;;;;;7.33;6.20;;;-1.70;99.90;;;;;;6229169;28;20498;-60
2020/12/27 07:05:07;;;;;;;7.80;6.63;;;-1.60;99.90;;;;;;6229593;28;20487;-60
2020/12/27 07:08:12;;;;;;;7.70;7.07;;;-1.60;99.90;;;;;;6229688;28;20483;-59
2020/12/27 07:11:24;;;;;;;10.30;8.33;;;-1.60;99.90;;;;;;6229054;28;20476;-60
2020/12/27 07:14:27;;;;;;;9.67;8.60;;;-1.50;99.90;;;;;;6228974;28;21023;-59
2020/12/27 07:17:35;;;;;;;10.67;9.53;;;-1.40;99.90;;;;;;6228609;28;20468;-59
2020/12/27 07:20:43;;;;;;;11.60;8.20;;;-1.20;99.90;;;;;;6229053;28;20472;-59
2020/12/27 07:23:48;;;;;;;9.97;9.00;;;-1.10;99.90;;;;;;6229593;28;20472;-59
2020/12/27 07:26:51;;;;;;;9.53;8.70;;;-1.10;99.90;;;;;;6229240;28;20472;-59
2020/12/27 07:29:56;;;;;;;6.90;6.07;;;-1.00;99.90;;;;;;6228316;28;20554;-59
2020/12/27 07:33:07;;;;;;;8.80;7.10;;;-0.90;99.90;;;;;;6228118;28;20456;-59
2020/12/27 07:36:10;;;;;;;13.97;7.27;;;-0.80;99.90;;;;;;6224198;28;20409;-59
2020/12/27 07:39:14;;;;;;;10.43;9.33;;;-0.70;99.60;;;;;;6227951;28;20824;-59
2020/12/27 07:42:23;;;;;;;8.60;7.80;;;-0.50;99.60;;;;;;6227771;28;20498;-59
2020/12/27 07:45:25;;;;;;;7.53;6.83;;;-0.40;99.20;;;;;;6228366;28;20483;-59
2020/12/27 07:48:28;;;;;;;8.37;7.37;;;-0.20;98.90;;;;;;6228031;28;20486;-59
2020/12/27 07:51:30;;;;;;;8.20;6.07;;;-0.20;98.40;;;;;;6227665;28;20812;-59
2020/12/27 07:54:32;;;;;;;6.77;5.60;;;-0.10;98.20;;;;;;6227761;28;20464;-59
2020/12/27 07:57:35;;;;;;;6.80;5.70;;;0.00;97.90;;;;;;6227835;28;20486;-60
2020/12/27 08:00:40;;;;;;;6.70;6.10;;;0.00;97.60;;;;;;6227993;28;20464;-59
2020/12/27 08:03:43;;;;;;;8.37;7.50;;;0.10;97.60;;;;;;6228149;28;20537;-59
2020/12/27 08:06:46;;;;;;;8.97;8.10;;;0.20;97.60;;;;;;6227756;28;20549;-59
2020/12/27 08:09:48;;;;;;;9.10;8.20;;;0.30;97.40;;;;;;6227551;28;20931;-59
2020/12/27 08:13:03;;;;;;;7.93;6.80;;;0.40;97.20;;;;;;6227589;28;20460;-59
2020/12/27 08:16:09;;;;;;;7.80;6.20;;;0.50;97.20;;;;;;6227422;28;20479;-60
2020/12/27 08:19:13;;;;;;;18.97;12.17;;;0.70;96.90;;;;;;6227307;28;20487;-60
2020/12/27 08:22:21;;;;;;;7.70;6.93;;;0.80;96.30;;;;;;6227201;28;20979;-59
2020/12/27 08:25:24;;;;;;;10.83;6.40;;;0.90;95.90;;;;;;6227403;28;20484;-60
2020/12/27 08:28:26;;;;;;;7.97;7.17;;;1.00;96.20;;;;;;6227490;28;20460;-58
2020/12/27 08:31:28;;;;;;;7.00;6.40;;;1.00;96.20;;;;;;6227663;28;20480;-58
2020/12/27 08:34:32;;;;;;;7.50;6.00;;;1.30;95.90;;;;;;6227595;28;20525;-58
2020/12/27 08:37:38;;;;;;;8.37;6.67;;;1.40;95.90;;;;;;6227082;28;20554;-58
2020/12/27 08:40:45;;;;;;;10.33;6.20;;;1.50;95.30;;;;;;6222411;28;20574;-58
2020/12/27 08:44:02;;;;;;;6.90;5.23;;;1.40;95.10;;;;;;6226686;28;20618;-58
2020/12/27 08:47:05;;;;;;;7.87;7.17;;;1.40;95.10;;;;;;6226389;28;20468;-58
2020/12/27 08:50:11;;;;;;;13.90;5.83;;;1.50;95.20;;;;;;6226524;28;20483;-59
2020/12/27 08:53:14;;;;;;;6.97;5.00;;;1.50;95.00;;;;;;6226885;28;20818;-59
2020/12/27 08:56:17;;;;;;;6.20;5.30;;;1.50;95.10;;;;;;6226843;28;20472;-58
2020/12/27 08:59:19;;;;;;;6.40;5.80;;;1.50;95.00;;;;;;6226288;28;20969;-59
2020/12/27 09:02:23;;;;;;;5.57;4.80;;;1.40;94.90;;;;;;6225683;28;20832;-59
2020/12/27 09:05:27;;;;;;;5.90;5.30;;;1.40;95.00;;;;;;6226225;28;20480;-58
2020/12/27 09:08:30;;;;;;;5.77;5.00;;;1.40;95.20;;;;;;6226259;28;20483;-58
2020/12/27 09:11:45;;;;;;;9.57;4.93;;;1.50;95.10;;;;;;6225782;28;20472;-58
2020/12/27 09:14:47;;;;;;;5.33;4.90;;;1.50;94.60;;;;;;6226561;28;20483;-58
2020/12/27 09:18:01;;;;;;;5.33;4.83;;;1.50;94.50;;;;;;6226432;28;20475;-59
2020/12/27 09:21:06;;;;;;;8.67;5.67;;;1.70;94.40;;;;;;6225708;28;20484;-58
2020/12/27 09:24:13;;;;;;;5.63;5.03;;;1.80;94.40;;;;;;6226080;28;20421;-58
2020/12/27 09:27:15;;;;;;;5.40;4.90;;;1.90;94.20;;;;;;6225820;28;20531;-58
2020/12/27 09:30:19;;;;;;;5.87;4.70;;;2.00;94.20;;;;;;6225686;28;20465;-58
2020/12/27 09:33:21;;;;;;;7.70;5.53;;;2.30;93.70;;;;;;6225695;28;20474;-58
2020/12/27 09:36:24;;;;;;;4.67;4.13;;;2.60;93.40;;;;;;6225768;28;20472;-58
2020/12/27 09:39:30;;;;;;;6.60;5.03;;;3.00;92.40;;;;;;6225641;28;20471;-58
2020/12/27 09:42:35;;;;;;;5.87;5.27;;;3.40;91.60;;;;;;6225363;28;20479;-58
2020/12/27 09:45:40;;;;;;;5.00;4.50;;;3.80;90.90;;;;;;6226549;28;20473;-59
2020/12/27 09:48:42;;;;;;;7.43;5.17;;;4.20;90.10;;;;;;6225743;28;20471;-58
2020/12/27 09:51:47;;;;;;;5.50;4.57;;;4.60;88.40;;;;;;6225345;28;20476;-59
2020/12/27 09:54:49;;;;;;;5.13;4.63;;;4.90;85.50;;;;;;6225590;28;20482;-59
2020/12/27 09:57:51;;;;;;;9.63;5.63;;;4.80;83.70;;;;;;6225485;28;20811;-59
2020/12/27 10:00:53;;;;;;;6.90;4.10;;;4.60;83.30;;;;;;6225209;28;20469;-59
2020/12/27 10:03:55;;;;;;;7.23;4.63;;;4.40;83.80;;;;;;6225525;28;20472;-59
2020/12/27 10:06:59;;;;;;;7.13;4.40;;;4.10;84.00;;;;;;6225340;28;20986;-58
2020/12/27 10:10:01;;;;;;;16.23;10.43;;;3.90;83.80;;;;;;6225056;28;20960;-59
2020/12/27 10:13:03;;;;;;;14.23;7.60;;;3.80;84.70;;;;;;6228566;28;20474;-59
2020/12/27 10:16:05;;;;;;;4.53;3.83;;;3.80;84.30;;;;;;6230392;28;20806;-59
2020/12/27 10:19:08;;;;;;;8.30;4.30;;;3.80;82.90;;;;;;6230675;28;20475;-59
2020/12/27 10:22:11;;;;;;;6.50;4.13;;;3.90;82.40;;;;;;6230177;28;20468;-59
2020/12/27 10:25:14;;;;;;;3.53;3.23;;;4.30;81.20;;;;;;6230602;28;20487;-60
2020/12/27 10:28:16;;;;;;;3.73;3.00;;;4.60;77.40;;;;;;6230407;28;20471;-60
2020/12/27 10:31:18;;;;;;;2.73;2.53;;;4.80;74.70;;;;;;6229871;28;20475;-60
2020/12/27 10:34:22;;;;;;;3.37;2.60;;;5.00;74.90;;;;;;6230043;28;20930;-61
2020/12/27 10:37:25;;;;;;;2.10;2.00;;;5.20;72.40;;;;;;6229824;28;20464;-61
2020/12/27 10:40:27;;;;;;;2.87;2.40;;;5.20;71.40;;;;;;6229550;28;20478;-61
2020/12/27 10:43:29;;;;;;;5.27;2.90;;;5.40;71.00;;;;;;6229591;28;20550;-58
2020/12/27 10:46:31;;;;;;;4.00;2.93;;;5.50;69.40;;;;;;6225542;28;20460;-58
2020/12/27 10:49:34;;;;;;;5.13;2.83;;;5.70;69.10;;;;;;6229915;28;20479;-59
2020/12/27 10:52:37;;;;;;;3.27;2.97;;;5.80;67.40;;;;;;6229514;28;20562;-59
2020/12/27 10:55:39;;;;;;;3.70;2.90;;;6.10;67.70;;;;;;6229924;28;20534;-58
2020/12/27 10:58:41;;;;;;;3.77;3.33;;;6.50;66.10;;;;;;6229187;28;20817;-59
2020/12/27 11:01:53;;;;;;;3.70;3.20;;;6.80;64.80;;;;;;6229493;28;20475;-59
2020/12/27 11:04:55;;;;;;;5.33;3.90;;;6.80;62.80;;;;;;6229171;28;20808;-59
2020/12/27 11:08:07;;;;;;;3.97;3.57;;;6.50;62.20;;;;;;6229039;28;20468;-59
2020/12/27 11:11:10;;;;;;;4.30;3.33;;;6.10;63.50;;;;;;6228757;28;20472;-59
2020/12/27 11:14:12;;;;;;;3.57;3.23;;;5.80;63.70;;;;;;6228847;28;20837;-59
2020/12/27 11:17:16;;;;;;;3.40;3.10;;;5.50;65.20;;;;;;6229468;28;20479;-59
2020/12/27 11:20:19;;;;;;;3.70;3.37;;;5.30;65.30;;;;;;6228572;28;20499;-58
2020/12/27 11:23:22;;;;;;;4.93;4.30;;;4.80;67.60;;;;;;6227893;28;20486;-59
2020/12/27 11:26:24;;;;;;;6.30;5.03;;;4.30;69.50;;;;;;6228570;28;20810;-59
2020/12/27 11:29:26;;;;;;;4.40;4.00;;;4.30;70.50;;;;;;6228824;28;20987;-59
2020/12/27 11:32:29;;;;;;;4.30;3.90;;;3.80;69.40;;;;;;6228500;28;20475;-58
2020/12/27 11:35:31;;;;;;;6.43;4.30;;;3.70;71.60;;;;;;6229032;28;20486;-59
2020/12/27 11:38:34;;;;;;;10.43;9.40;;;3.60;71.80;;;;;;6228160;28;20824;-58
2020/12/27 11:41:36;;;;;;;10.40;4.67;;;3.50;73.10;;;;;;6228301;28;20487;-58
2020/12/27 11:44:38;;;;;;;11.27;10.37;;;3.60;73.20;;;;;;6228210;28;20482;-58
2020/12/27 11:47:40;;;;;;;6.93;6.20;;;3.50;73.40;;;;;;6228670;28;20471;-58
2020/12/27 11:50:45;;;;;;;5.17;4.73;;;3.50;74.20;;;;;;6223899;28;21080;-58
2020/12/27 11:53:51;;;;;;;8.30;5.73;;;3.50;74.40;;;;;;6227964;28;20498;-59
2020/12/27 11:56:55;;;;;;;8.27;5.47;;;3.50;74.70;;;;;;6227945;28;20468;-59
2020/12/27 11:59:57;;;;;;;8.20;5.07;;;3.40;75.90;;;;;;6228591;28;20499;-59
2020/12/27 12:02:59;;;;;;;8.20;4.50;;;3.40;76.40;;;;;;6227776;28;20480;-59
2020/12/27 12:06:01;;;;;;;4.90;4.50;;;3.40;75.50;;;;;;6228115;28;20462;-59
2020/12/27 12:09:05;;;;;;;5.50;4.37;;;3.40;75.60;;;;;;6227654;28;20919;-59
2020/12/27 12:12:07;;;;;;;6.07;5.20;;;3.50;76.10;;;;;;6227888;28;20452;-59
2020/12/27 12:15:10;;;;;;;6.77;5.87;;;3.40;75.50;;;;;;6227504;28;20440;-59
2020/12/27 12:18:12;;;;;;;5.33;4.53;;;3.40;75.90;;;;;;6227386;28;20764;-59
2020/12/27 12:21:14;;;;;;;5.43;4.93;;;3.50;75.60;;;;;;6227035;28;20824;-59
2020/12/27 12:24:18;;;;;;;7.03;4.60;;;3.40;75.70;;;;;;6227732;28;20451;-59
2020/12/27 12:27:20;;;;;;;5.80;4.60;;;3.20;75.60;;;;;;6227507;28;20495;-59
2020/12/27 12:30:24;;;;;;;6.63;5.20;;;3.20;76.60;;;;;;6227460;28;20460;-58
2020/12/27 12:33:26;;;;;;;8.33;5.40;;;3.10;77.30;;;;;;6227188;28;20474;-59
2020/12/27 12:36:29;;;;;;;5.23;4.77;;;3.10;78.20;;;;;;6227000;28;20455;-59
2020/12/27 12:39:34;;;;;;;5.17;4.67;;;2.90;78.90;;;;;;6227186;28;20483;-59
2020/12/27 12:42:37;;;;;;;5.30;4.77;;;3.00;79.60;;;;;;6227416;28;20598;-59
2020/12/27 12:45:39;;;;;;;5.20;4.70;;;3.10;79.10;;;;;;6229807;28;20482;-60
2020/12/27 12:48:42;;;;;;;4.33;3.93;;;3.20;78.90;;;;;;6228224;28;21006;-59
2020/12/27 12:51:44;;;;;;;4.60;4.20;;;3.10;76.70;;;;;;6228062;28;20480;-59
2020/12/27 12:54:47;;;;;;;4.63;4.07;;;3.10;77.40;;;;;;6222588;28;20491;-58
2020/12/27 12:57:50;;;;;;;4.80;4.40;;;3.10;77.60;;;;;;6227027;28;20507;-60
2020/12/27 13:00:52;;;;;;;6.33;5.73;;;3.30;78.30;;;;;;6226207;28;20794;-59
2020/12/27 13:03:54;;;;;;;7.10;4.70;;;3.30;78.30;;;;;;6226638;28;20537;-60
2020/12/27 13:06:57;;;;;;;5.90;5.30;;;3.40;77.60;;;;;;6226504;28;20478;-60
2020/12/27 13:10:02;;;;;;;8.20;6.37;;;3.40;77.50;;;;;;6226108;28;20819;-59
2020/12/27 13:13:12;;;;;;;10.40;5.67;;;3.50;77.90;;;;;;6226748;28;20491;-59
2020/12/27 13:16:14;;;;;;;8.00;6.40;;;3.50;77.40;;;;;;6226277;28;20479;-59
2020/12/27 13:19:16;;;;;;;7.80;5.63;;;3.50;77.20;;;;;;6226499;28;20480;-60
2020/12/27 13:22:18;;;;;;;6.00;5.30;;;3.60;77.70;;;;;;6226186;28;20490;-59
2020/12/27 13:25:21;;;;;;;7.37;5.57;;;3.50;77.00;;;;;;6226379;28;20487;-59
2020/12/27 13:28:25;;;;;;;9.03;5.30;;;3.50;77.00;;;;;;6226196;28;20991;-59
2020/12/27 13:31:27;;;;;;;6.63;4.20;;;3.50;76.40;;;;;;6225925;28;20806;-60
2020/12/27 13:34:29;;;;;;;5.67;4.53;;;3.40;77.30;;;;;;6226289;28;20467;-59
2020/12/27 13:37:32;;;;;;;8.23;5.00;;;3.40;76.80;;;;;;6226266;28;20471;-59
2020/12/27 13:40:35;;;;;;;4.83;4.07;;;3.20;76.60;;;;;;6225445;28;20476;-60
2020/12/27 13:43:46;;;;;;;4.50;4.20;;;3.10;76.50;;;;;;6225308;28;20485;-59
2020/12/27 13:46:48;;;;;;;4.57;4.10;;;3.20;76.80;;;;;;6225393;28;20468;-60
2020/12/27 13:49:51;;;;;;;5.33;4.70;;;3.10;77.20;;;;;;6225371;28;20859;-60
2020/12/27 13:52:53;;;;;;;4.70;4.30;;;3.10;77.80;;;;;;6225554;28;20476;-59
2020/12/27 13:55:56;;;;;;;5.80;4.87;;;3.00;77.60;;;;;;6216421;28;20483;-59
2020/12/27 13:58:59;;;;;;;5.50;4.90;;;3.00;78.60;;;;;;6225194;28;20487;-60
2020/12/27 14:02:02;;;;;;;6.40;5.00;;;3.00;77.60;;;;;;6225056;28;20475;-59
2020/12/27 14:05:06;;;;;;;5.37;4.77;;;2.90;77.90;;;;;;6225363;28;20480;-59
2020/12/27 14:08:08;;;;;;;5.30;4.90;;;2.90;78.40;;;;;;6225393;28;20484;-59
2020/12/27 14:11:12;;;;;;;6.53;5.40;;;2.90;78.80;;;;;;6225415;28;20586;-59
2020/12/27 14:14:14;;;;;;;10.50;4.20;;;2.90;78.70;;;;;;6225336;28;20478;-60
2020/12/27 14:17:16;;;;;;;5.23;4.73;;;2.90;78.90;;;;;;6225227;28;20537;-60
2020/12/27 14:20:19;;;;;;;5.37;4.87;;;2.90;78.80;;;;;;6225332;28;20487;-59
2020/12/27 14:23:21;;;;;;;6.53;5.20;;;3.00;78.90;;;;;;6225090;28;20491;-59
2020/12/27 14:26:34;;;;;;;7.27;5.30;;;2.90;78.90;;;;;;6225043;28;20478;-60
2020/12/27 14:29:38;;;;;;;5.53;5.13;;;2.90;79.30;;;;;;6225039;28;20468;-59
2020/12/27 14:32:41;;;;;;;5.23;4.73;;;3.00;79.40;;;;;;6225526;28;21029;-59
2020/12/27 14:35:43;;;;;;;6.43;5.40;;;2.90;79.10;;;;;;6225275;28;20467;-59
2020/12/27 14:38:45;;;;;;;9.80;5.80;;;2.80;79.80;;;;;;6225059;28;20487;-59
2020/12/27 14:41:48;;;;;;;7.83;5.67;;;2.70;80.40;;;;;;6224417;28;20538;-59
2020/12/27 14:44:50;;;;;;;8.13;5.17;;;2.60;81.10;;;;;;6224971;28;20491;-60
2020/12/27 14:47:53;;;;;;;6.13;5.23;;;2.50;81.90;;;;;;6225429;28;20468;-59
2020/12/27 14:50:55;;;;;;;6.13;5.53;;;2.50;82.70;;;;;;6224638;28;20476;-59
2020/12/27 14:53:57;;;;;;;11.43;6.20;;;2.40;83.10;;;;;;6224782;28;20943;-59
2020/12/27 14:57:02;;;;;;;6.40;5.57;;;2.30;84.00;;;;;;6224658;28;20500;-59
2020/12/27 15:00:05;;;;;;;9.23;6.37;;;2.30;84.60;;;;;;6227315;28;20977;-59
2020/12/27 15:03:07;;;;;;;6.33;5.77;;;2.20;84.50;;;;;;6229171;28;20520;-58
2020/12/27 15:06:09;;;;;;;7.67;6.53;;;2.20;85.30;;;;;;6229208;28;20440;-58
2020/12/27 15:09:11;;;;;;;7.53;6.83;;;2.20;85.80;;;;;;6228718;28;20444;-58
2020/12/27 15:12:15;;;;;;;9.33;7.10;;;2.10;86.80;;;;;;6228574;28;20467;-59
2020/12/27 15:15:17;;;;;;;8.90;7.13;;;2.00;87.20;;;;;;6228251;28;20913;-59
2020/12/27 15:18:19;;;;;;;11.90;7.50;;;1.90;87.90;;;;;;6228961;28;20448;-59
2020/12/27 15:21:21;;;;;;;7.83;6.90;;;1.90;88.00;;;;;;6228726;28;20483;-59
2020/12/27 15:24:24;;;;;;;8.47;7.47;;;1.90;88.10;;;;;;6228763;28;20460;-60
2020/12/27 15:27:28;;;;;;;7.37;6.40;;;1.90;88.40;;;;;;6228552;28;20538;-59
2020/12/27 15:30:30;;;;;;;8.20;7.50;;;2.00;89.80;;;;;;6228429;28;20776;-59
2020/12/27 15:33:32;;;;;;;6.97;6.23;;;2.00;88.90;;;;;;6228647;28;20464;-59
2020/12/27 15:36:35;;;;;;;7.00;6.40;;;2.00;88.30;;;;;;6228338;28;20475;-59
2020/12/27 15:39:37;;;;;;;8.60;7.37;;;2.00;88.90;;;;;;6228401;28;20476;-58
2020/12/27 15:42:40;;;;;;;8.07;7.27;;;1.90;89.10;;;;;;6228371;28;20472;-58
2020/12/27 15:45:43;;;;;;;7.37;6.60;;;1.90;89.70;;;;;;6228346;28;20479;-58
2020/12/27 15:48:47;;;;;;;10.60;6.80;;;1.90;90.00;;;;;;6227843;28;20476;-58
2020/12/27 15:51:50;;;;;;;7.77;7.00;;;1.90;90.10;;;;;;6227814;28;20875;-58
2020/12/27 15:54:52;;;;;;;8.70;6.97;;;1.90;90.10;;;;;;6228163;28;20509;-58
2020/12/27 15:57:55;;;;;;;7.73;6.93;;;1.80;90.20;;;;;;6228102;28;20479;-59
2020/12/27 16:00:57;;;;;;;7.50;6.80;;;1.80;90.20;;;;;;6227935;28;20482;-59